Time,TemperatureF,DewpointF,PressureIn,WindDirection,WindDirectionDegrees,WindSpeedMPH,WindSpeedGustMPH,Humidity,HourlyPrecipIn,Conditions,Clouds,dailyrainin,SoftwareType,DateUTC
2013-04-20 00:01:00,43.5,-1.1,17.72,NW,317,6.3,6.3,15,0.00,,---,0.00,VWS V13.01,2013-04-20 04:01:00,
2013-04-20 00:06:00,43.5,-1.1,17.72,SE,133,0.0,2.2,15,0.00,,---,0.00,VWS V13.01,2013-04-20 04:06:00,
2013-04-20 00:11:00,43.5,-1.1,17.72,NNW,345,3.1,3.1,15,0.00,,---,0.00,VWS V13.01,2013-04-20 04:11:00,
2013-04-20 00:16:00,43.5,-1.1,17.72,SSE,160,0.0,2.2,15,0.00,,---,0.00,VWS V13.01,2013-04-20 04:16:00,
2013-04-20 00:21:00,43.5,-1.1,17.72,North,357,3.6,3.6,15,0.00,,---,0.00,VWS V13.01,2013-04-20 04:21:00,
2013-04-20 00:26:00,43.5,-1.1,17.72,West,270,4.0,4.0,15,0.00,,---,0.00,VWS V13.01,2013-04-20 04:26:00,
2013-04-20 00:31:00,43.5,-1.1,17.72,NW,307,4.0,4.0,15,0.00,,---,0.00,VWS V13.01,2013-04-20 04:31:00,
2013-04-20 00:36:00,43.5,-1.1,17.72,SSW,192,4.9,5.4,15,0.00,,---,0.00,VWS V13.01,2013-04-20 04:36:00,
2013-04-20 00:41:00,43.5,-1.1,17.72,SSE,147,2.7,4.9,15,0.00,,---,0.00,VWS V13.01,2013-04-20 04:41:00,
2013-04-20 00:46:00,43.5,-1.1,17.72,West,281,0.0,4.0,15,0.00,,---,0.00,VWS V13.01,2013-04-20 04:46:00,
2013-04-20 00:51:00,43.3,-1.2,17.72,NW,308,5.4,5.4,15,0.00,,---,0.00,VWS V13.01,2013-04-20 04:51:00,
2013-04-20 00:56:00,43.3,-1.2,17.72,WSW,253,0.0,2.7,15,0.00,,---,0.00,VWS V13.01,2013-04-20 04:56:00,
2013-04-20 01:01:00,43.2,-1.4,17.72,WNW,293,2.7,2.7,15,0.00,,---,0.00,VWS V13.01,2013-04-20 05:01:00,
2013-04-20 01:06:00,43.0,-1.5,17.72,NW,305,3.6,5.8,15,0.00,,---,0.00,VWS V13.01,2013-04-20 05:06:00,
2013-04-20 01:11:00,43.0,-1.5,17.72,West,265,3.1,3.1,15,0.00,,---,0.00,VWS V13.01,2013-04-20 05:11:00,
2013-04-20 01:16:00,42.8,-1.6,17.72,North,5,0.0,3.6,15,0.00,,---,0.00,VWS V13.01,2013-04-20 05:16:00,
2013-04-20 01:21:00,42.8,-1.6,17.72,West,263,3.6,3.6,15,0.00,,---,0.00,VWS V13.01,2013-04-20 05:21:00,
2013-04-20 01:26:00,42.8,-1.6,17.72,NW,304,3.6,6.3,15,0.00,,---,0.00,VWS V13.01,2013-04-20 05:26:00,
2013-04-20 01:31:00,42.8,-1.6,17.72,WNW,283,2.2,3.1,15,0.00,,---,0.00,VWS V13.01,2013-04-20 05:31:00,
2013-04-20 01:36:00,42.6,-0.4,17.72,SSW,198,4.0,4.9,16,0.00,,---,0.00,VWS V13.01,2013-04-20 05:36:00,
2013-04-20 01:41:00,42.6,-0.4,17.72,West,274,2.7,10.1,16,0.00,,---,0.00,VWS V13.01,2013-04-20 05:41:00,
2013-04-20 01:46:00,42.6,-0.4,17.72,South,177,4.0,6.3,16,0.00,,---,0.00,VWS V13.01,2013-04-20 05:46:00,
2013-04-20 01:51:00,42.6,-0.4,17.72,West,275,2.7,3.1,16,0.00,,---,0.00,VWS V13.01,2013-04-20 05:51:00,
2013-04-20 01:56:00,42.6,-0.4,17.72,WSW,253,6.3,6.3,16,0.00,,---,0.00,VWS V13.01,2013-04-20 05:56:00,
2013-04-20 02:01:00,42.4,-0.6,17.72,NW,304,3.1,3.1,16,0.00,,---,0.00,VWS V13.01,2013-04-20 06:01:00,
2013-04-20 02:06:00,42.4,-0.6,17.72,West,281,3.6,4.0,16,0.00,,---,0.00,VWS V13.01,2013-04-20 06:06:00,
2013-04-20 02:11:00,42.4,-0.6,17.72,SW,228,0.0,3.6,16,0.00,,---,0.00,VWS V13.01,2013-04-20 06:11:00,
2013-04-20 02:16:00,42.4,-0.6,17.72,SW,234,2.7,4.0,16,0.00,,---,0.00,VWS V13.01,2013-04-20 06:16:00,
2013-04-20 02:21:00,42.4,-0.6,17.72,NW,309,4.0,5.4,16,0.00,,---,0.00,VWS V13.01,2013-04-20 06:21:00,
2013-04-20 02:26:00,42.4,-0.6,17.72,NNE,13,5.8,11.4,16,0.00,,---,0.00,VWS V13.01,2013-04-20 06:26:00,
2013-04-20 02:31:00,42.4,-0.6,17.72,South,189,3.6,4.9,16,0.00,,---,0.00,VWS V13.01,2013-04-20 06:31:00,
2013-04-20 02:36:00,42.4,-0.6,17.72,SSW,213,2.2,2.7,16,0.00,,---,0.00,VWS V13.01,2013-04-20 06:36:00,
2013-04-20 02:41:00,42.4,-0.6,17.72,South,184,4.9,8.1,16,0.00,,---,0.00,VWS V13.01,2013-04-20 06:41:00,
2013-04-20 02:46:00,42.6,-0.4,17.72,WSW,248,4.9,4.9,16,0.00,,---,0.00,VWS V13.01,2013-04-20 06:46:00,
2013-04-20 02:51:00,42.6,-0.4,17.72,North,10,2.2,2.7,16,0.00,,---,0.00,VWS V13.01,2013-04-20 06:51:00,
2013-04-20 02:56:00,42.6,-0.4,17.72,NE,41,6.3,6.3,16,0.00,,---,0.00,VWS V13.01,2013-04-20 06:56:00,
2013-04-20 03:01:00,42.6,-0.4,17.72,WSW,243,5.4,7.6,16,0.00,,---,0.00,VWS V13.01,2013-04-20 07:01:00,
2013-04-20 03:06:00,42.8,-1.6,17.72,NW,308,8.1,8.1,15,0.00,,---,0.00,VWS V13.01,2013-04-20 07:06:00,
2013-04-20 03:11:00,42.8,-1.6,17.72,West,267,2.7,8.3,15,0.00,,---,0.00,VWS V13.01,2013-04-20 07:11:00,
2013-04-20 03:16:00,43.0,-1.5,17.72,WSW,238,3.1,8.3,15,0.00,,---,0.00,VWS V13.01,2013-04-20 07:16:00,
2013-04-20 03:20:00,43.0,-1.5,17.72,SE,139,5.4,5.8,15,0.00,,---,0.00,VWS V13.01,2013-04-20 07:20:00,
2013-04-20 03:26:00,43.0,-1.5,17.72,NW,326,4.0,5.4,15,0.00,,---,0.00,VWS V13.01,2013-04-20 07:26:00,
2013-04-20 03:30:00,42.8,-1.6,17.72,WSW,247,3.6,5.4,15,0.00,,---,0.00,VWS V13.01,2013-04-20 07:30:00,
2013-04-20 03:35:00,42.8,-1.6,17.72,WNW,293,3.6,5.8,15,0.00,,---,0.00,VWS V13.01,2013-04-20 07:35:00,
2013-04-20 03:40:00,42.6,-0.4,17.72,West,270,2.2,3.1,16,0.00,,---,0.00,VWS V13.01,2013-04-20 07:40:00,
2013-04-20 03:45:00,42.4,-0.6,17.72,NW,315,2.7,3.6,16,0.00,,---,0.00,VWS V13.01,2013-04-20 07:45:00,
2013-04-20 03:50:00,42.1,-0.9,17.72,West,271,4.0,6.3,16,0.00,,---,0.00,VWS V13.01,2013-04-20 07:50:00,
2013-04-20 03:55:00,41.9,-1.0,17.72,South,189,4.9,6.3,16,0.00,,---,0.00,VWS V13.01,2013-04-20 07:55:00,
2013-04-20 04:00:00,41.5,-1.3,17.72,NW,304,3.1,5.8,16,0.00,,---,0.00,VWS V13.01,2013-04-20 08:00:00,
2013-04-20 04:05:00,41.4,-1.5,17.72,West,273,0.0,5.8,16,0.00,,---,0.00,VWS V13.01,2013-04-20 08:05:00,
2013-04-20 04:10:00,41.2,-1.6,17.72,South,191,4.9,4.9,16,0.00,,---,0.00,VWS V13.01,2013-04-20 08:10:00,
2013-04-20 04:15:00,41.0,-1.7,17.72,SW,221,5.8,5.8,16,0.00,,---,0.00,VWS V13.01,2013-04-20 08:15:00,
2013-04-20 04:20:00,41.0,-1.7,17.72,WSW,253,6.3,6.3,16,0.00,,---,0.00,VWS V13.01,2013-04-20 08:20:00,
2013-04-20 04:25:00,40.8,-1.9,17.72,SW,233,4.9,4.9,16,0.00,,---,0.00,VWS V13.01,2013-04-20 08:25:00,
2013-04-20 04:30:00,40.6,-2.0,17.72,South,171,3.1,4.0,16,0.00,,---,0.00,VWS V13.01,2013-04-20 08:30:00,
2013-04-20 04:35:00,40.5,-2.2,17.72,SSW,209,2.7,4.0,16,0.00,,---,0.00,VWS V13.01,2013-04-20 08:35:00,
2013-04-20 04:40:00,40.5,-2.2,17.72,WNW,288,2.7,2.7,16,0.00,,---,0.00,VWS V13.01,2013-04-20 08:40:00,
2013-04-20 04:45:00,40.1,-2.5,17.72,SSW,209,5.4,5.4,16,0.00,,---,0.00,VWS V13.01,2013-04-20 08:45:00,
2013-04-20 04:50:00,39.9,-2.6,17.72,North,1,2.2,6.3,16,0.00,,---,0.00,VWS V13.01,2013-04-20 08:50:00,
2013-04-20 04:55:00,39.7,-2.8,17.72,East,82,0.0,3.6,16,0.00,,---,0.00,VWS V13.01,2013-04-20 08:55:00,
2013-04-20 05:00:00,39.6,-2.9,17.72,SE,143,3.1,3.1,16,0.00,,---,0.00,VWS V13.01,2013-04-20 09:00:00,
2013-04-20 05:05:00,39.4,-3.1,17.72,WNW,282,3.1,5.4,16,0.00,,---,0.00,VWS V13.01,2013-04-20 09:05:00,
2013-04-20 05:10:00,39.2,-3.2,17.72,SSW,211,2.2,4.0,16,0.00,,---,0.00,VWS V13.01,2013-04-20 09:10:00,
2013-04-20 05:15:00,39.2,-3.2,17.72,West,267,3.1,7.2,16,0.00,,---,0.00,VWS V13.01,2013-04-20 09:15:00,
2013-04-20 05:20:00,39.2,-3.2,17.72,SW,227,5.4,5.4,16,0.00,,---,0.00,VWS V13.01,2013-04-20 09:20:00,
2013-04-20 05:25:00,39.2,-3.2,17.72,SW,226,0.0,0.0,16,0.00,,---,0.00,VWS V13.01,2013-04-20 09:25:00,
2013-04-20 05:30:00,39.2,-3.2,17.72,WNW,301,2.7,3.1,16,0.00,,---,0.00,VWS V13.01,2013-04-20 09:30:00,
2013-04-20 05:35:00,39.0,-3.4,17.72,SW,214,3.6,5.8,16,0.00,,---,0.00,VWS V13.01,2013-04-20 09:35:00,
2013-04-20 05:40:00,39.0,-3.4,17.72,South,182,5.8,5.8,16,0.00,,---,0.00,VWS V13.01,2013-04-20 09:40:00,
2013-04-20 05:45:00,39.2,-3.2,17.72,WSW,241,2.2,2.7,16,0.00,,---,0.00,VWS V13.01,2013-04-20 09:45:00,
2013-04-20 05:50:00,39.2,-3.2,17.72,North,5,6.3,6.3,16,0.00,,---,0.00,VWS V13.01,2013-04-20 09:50:00,
2013-04-20 05:55:00,39.2,-3.2,17.72,WSW,250,4.0,5.4,16,0.00,,---,0.00,VWS V13.01,2013-04-20 09:55:00,
2013-04-20 06:00:00,39.2,-3.2,17.72,West,263,3.6,3.6,16,0.00,,---,0.00,VWS V13.01,2013-04-20 10:00:00,
2013-04-20 06:05:00,39.2,-3.2,17.72,South,188,2.2,2.7,16,0.00,,---,0.00,VWS V13.01,2013-04-20 10:05:00,
2013-04-20 06:10:00,39.2,-3.2,17.72,South,174,4.0,4.9,16,0.00,,---,0.00,VWS V13.01,2013-04-20 10:10:00,
2013-04-20 06:15:00,39.2,-3.2,17.72,West,271,4.0,4.0,16,0.00,,---,0.00,VWS V13.01,2013-04-20 10:15:00,
2013-04-20 06:20:00,39.2,-3.2,17.72,SSE,155,5.8,7.2,16,0.00,,---,0.00,VWS V13.01,2013-04-20 10:20:00,
2013-04-20 06:25:00,39.2,-3.2,17.72,WSW,247,2.7,2.7,16,0.00,,---,0.00,VWS V13.01,2013-04-20 10:25:00,
2013-04-20 06:30:00,39.2,-3.2,17.72,WNW,283,14.1,14.1,16,0.00,,---,0.00,VWS V13.01,2013-04-20 10:30:00,
2013-04-20 06:35:00,39.2,-3.2,17.72,SSE,151,2.2,3.1,16,0.00,,---,0.00,VWS V13.01,2013-04-20 10:35:00,
2013-04-20 06:40:00,39.4,-0.6,17.72,SW,217,3.1,3.6,18,0.00,,---,0.00,VWS V13.01,2013-04-20 10:40:00,
2013-04-20 06:45:00,39.2,-0.7,17.72,NW,312,6.3,6.3,18,0.00,,---,0.00,VWS V13.01,2013-04-20 10:45:00,
2013-04-20 06:50:00,38.5,-0.2,17.72,SW,214,0.0,4.9,19,0.00,,---,0.00,VWS V13.01,2013-04-20 10:50:00,
2013-04-20 06:56:00,37.9,-0.6,17.72,WSW,239,2.7,3.6,19,0.00,,---,0.00,VWS V13.01,2013-04-20 10:56:00,
2013-04-20 07:01:00,37.6,1.2,17.72,WNW,292,2.7,2.7,21,0.00,,---,0.00,VWS V13.01,2013-04-20 11:01:00,
2013-04-20 07:06:00,37.6,1.2,17.72,SW,215,5.8,5.8,21,0.00,,---,0.00,VWS V13.01,2013-04-20 11:06:00,
2013-04-20 07:11:00,37.6,1.2,17.72,NE,49,3.6,9.6,21,0.00,,---,0.00,VWS V13.01,2013-04-20 11:11:00,
2013-04-20 07:16:00,37.6,1.2,17.72,WNW,299,2.7,3.6,21,0.00,,---,0.00,VWS V13.01,2013-04-20 11:16:00,
2013-04-20 07:21:00,37.8,1.4,17.72,WNW,291,0.0,3.1,21,0.00,,---,0.00,VWS V13.01,2013-04-20 11:21:00,
2013-04-20 07:26:00,37.9,4.4,17.72,West,260,2.7,4.9,24,0.00,,---,0.00,VWS V13.01,2013-04-20 11:26:00,
2013-04-20 07:31:00,38.1,4.5,17.72,SSE,161,2.7,2.7,24,0.00,,---,0.00,VWS V13.01,2013-04-20 11:31:00,
2013-04-20 07:36:00,38.1,4.5,17.72,NW,313,6.7,8.7,24,0.00,,---,0.00,VWS V13.01,2013-04-20 11:36:00,
2013-04-20 07:41:00,38.3,4.7,17.72,West,261,4.0,4.0,24,0.00,,---,0.00,VWS V13.01,2013-04-20 11:41:00,
2013-04-20 07:46:00,38.3,4.7,17.72,WNW,299,2.7,6.3,24,0.00,,---,0.00,VWS V13.01,2013-04-20 11:46:00,
2013-04-20 07:51:00,38.5,4.8,17.72,NNW,341,2.7,3.1,24,0.00,,---,0.00,VWS V13.01,2013-04-20 11:51:00,
2013-04-20 07:56:00,38.7,5.0,17.72,North,350,2.7,4.0,24,0.00,,---,0.00,VWS V13.01,2013-04-20 11:56:00,
2013-04-20 08:00:00,39.0,5.3,17.72,West,279,0.0,5.4,24,0.00,,---,0.00,VWS V13.01,2013-04-20 12:00:00,
2013-04-20 08:05:00,39.4,4.7,17.72,WSW,242,3.6,4.0,23,0.00,,---,0.00,VWS V13.01,2013-04-20 12:05:00,
2013-04-20 08:10:00,39.9,5.1,17.72,WSW,256,0.0,5.8,23,0.00,,---,0.00,VWS V13.01,2013-04-20 12:10:00,
2013-04-20 08:15:00,40.1,3.3,17.72,NNW,335,3.1,5.4,21,0.00,,---,0.00,VWS V13.01,2013-04-20 12:15:00,
2013-04-20 08:20:00,38.8,5.2,17.72,WSW,245,4.0,10.1,24,0.00,,---,0.00,VWS V13.01,2013-04-20 12:20:00,
2013-04-20 08:25:00,37.0,3.6,17.72,SW,223,2.2,2.7,24,0.00,,---,0.00,VWS V13.01,2013-04-20 12:25:00,
2013-04-20 08:30:00,36.0,5.2,17.72,WSW,239,0.0,0.0,27,0.00,,---,0.00,VWS V13.01,2013-04-20 12:30:00,
2013-04-20 08:35:00,36.1,5.4,17.72,SW,234,3.6,3.6,27,0.00,,---,0.00,VWS V13.01,2013-04-20 12:35:00,
2013-04-20 08:40:00,36.3,7.9,17.72,South,187,5.4,5.4,30,0.00,,---,0.00,VWS V13.01,2013-04-20 12:40:00,
2013-04-20 08:45:00,36.9,8.3,17.72,WNW,283,0.0,0.0,30,0.00,,---,0.00,VWS V13.01,2013-04-20 12:45:00,
2013-04-20 08:50:00,37.4,8.8,17.72,SSW,193,2.7,7.2,30,0.00,,---,0.00,VWS V13.01,2013-04-20 12:50:00,
2013-04-20 08:55:00,37.9,9.3,17.72,NW,325,5.4,5.4,30,0.00,,---,0.00,VWS V13.01,2013-04-20 12:55:00,
2013-04-20 09:00:00,38.7,9.9,17.72,West,263,3.6,9.6,30,0.00,,---,0.00,VWS V13.01,2013-04-20 13:00:00,
2013-04-20 09:05:00,39.2,9.6,17.72,South,188,3.6,3.6,29,0.00,,---,0.00,VWS V13.01,2013-04-20 13:05:00,
2013-04-20 09:10:00,39.4,9.0,17.72,East,96,4.9,4.9,28,0.00,,---,0.00,VWS V13.01,2013-04-20 13:10:00,
2013-04-20 09:15:00,39.9,5.1,17.72,WNW,293,6.3,8.3,23,0.00,,---,0.00,VWS V13.01,2013-04-20 13:15:00,
2013-04-20 09:20:00,40.3,3.5,17.72,North,4,6.3,6.3,21,0.00,,---,0.00,VWS V13.01,2013-04-20 13:20:00,
2013-04-20 09:25:00,40.5,0.3,17.72,SW,217,2.2,6.3,18,0.00,,---,0.00,VWS V13.01,2013-04-20 13:25:00,
2013-04-20 09:30:00,41.2,0.9,17.72,North,353,8.7,8.7,18,0.00,,---,0.00,VWS V13.01,2013-04-20 13:30:00,
2013-04-20 09:35:00,41.5,1.2,17.72,SSE,153,0.0,4.0,18,0.00,,---,0.00,VWS V13.01,2013-04-20 13:35:00,
2013-04-20 09:40:00,41.4,1.0,17.72,SW,234,4.9,6.3,18,0.00,,---,0.00,VWS V13.01,2013-04-20 13:40:00,
2013-04-20 09:45:00,41.2,-1.6,17.72,SW,225,0.0,0.0,16,0.00,,---,0.00,VWS V13.01,2013-04-20 13:45:00,
2013-04-20 09:50:00,41.0,-1.7,17.72,ENE,78,3.6,4.5,16,0.00,,---,0.00,VWS V13.01,2013-04-20 13:50:00,
2013-04-20 09:55:00,40.6,-2.0,17.72,WSW,241,4.0,5.4,16,0.00,,---,0.00,VWS V13.01,2013-04-20 13:55:00,
2013-04-20 10:00:00,40.5,-2.2,17.72,NNW,341,3.6,4.0,16,0.00,,---,0.00,VWS V13.01,2013-04-20 14:00:00,
2013-04-20 10:05:00,40.5,-2.2,17.72,WSW,251,0.0,4.9,16,0.00,,---,0.00,VWS V13.01,2013-04-20 14:05:00,
2013-04-20 10:10:00,40.3,-2.3,17.72,WSW,246,5.8,7.6,16,0.00,,---,0.00,VWS V13.01,2013-04-20 14:10:00,
2013-04-20 10:15:00,40.6,-2.0,17.72,WSW,258,2.2,4.5,16,0.00,,---,0.00,VWS V13.01,2013-04-20 14:15:00,
2013-04-20 10:20:00,41.0,-1.7,17.72,West,263,2.7,5.8,16,0.00,,---,0.00,VWS V13.01,2013-04-20 14:20:00,
2013-04-20 10:25:00,41.2,-1.6,17.72,NE,40,8.7,10.5,16,0.00,,---,0.00,VWS V13.01,2013-04-20 14:25:00,
2013-04-20 10:30:00,41.0,-1.7,17.72,North,5,3.1,6.3,16,0.00,,---,0.00,VWS V13.01,2013-04-20 14:30:00,
2013-04-20 10:35:00,41.0,-1.7,17.72,SW,236,4.0,4.0,16,0.00,,---,0.00,VWS V13.01,2013-04-20 14:35:00,
2013-04-20 10:40:00,40.6,-2.0,17.72,North,357,0.0,5.4,16,0.00,,---,0.00,VWS V13.01,2013-04-20 14:40:00,
2013-04-20 10:45:00,40.1,-2.5,17.72,West,267,0.0,8.3,16,0.00,,---,0.00,VWS V13.01,2013-04-20 14:45:00,
2013-04-20 10:50:00,39.9,-2.6,17.72,NNE,33,6.3,12.3,16,0.00,,---,0.00,VWS V13.01,2013-04-20 14:50:00,
2013-04-20 10:55:00,40.5,-2.2,17.72,SSE,155,3.1,4.9,16,0.00,,---,0.00,VWS V13.01,2013-04-20 14:55:00,
2013-04-20 11:00:00,41.0,-1.7,17.72,WSW,253,4.9,5.4,16,0.00,,---,0.00,VWS V13.01,2013-04-20 15:00:00,
2013-04-20 11:05:00,40.8,-1.9,17.72,NNE,32,4.0,4.0,16,0.00,,---,0.00,VWS V13.01,2013-04-20 15:05:00,
2013-04-20 11:10:00,41.5,-1.3,17.72,NNE,29,5.4,6.3,16,0.00,,---,0.00,VWS V13.01,2013-04-20 15:10:00,
2013-04-20 11:15:00,42.3,-0.7,17.72,SSE,165,0.0,0.0,16,0.00,,---,0.00,VWS V13.01,2013-04-20 15:15:00,
2013-04-20 11:20:00,43.5,-1.1,17.72,WNW,303,2.7,4.5,15,0.00,,---,0.00,VWS V13.01,2013-04-20 15:20:00,
2013-04-20 11:25:00,43.5,-1.1,17.72,West,277,5.8,5.8,15,0.00,,---,0.00,VWS V13.01,2013-04-20 15:25:00,
2013-04-20 11:30:00,42.8,-1.6,17.72,NE,35,5.8,8.1,15,0.00,,---,0.00,VWS V13.01,2013-04-20 15:30:00,
2013-04-20 11:35:00,41.9,-1.0,17.72,East,89,3.6,8.1,16,0.00,,---,0.00,VWS V13.01,2013-04-20 15:35:00,
2013-04-20 11:40:00,41.5,-1.3,17.72,East,88,5.4,8.3,16,0.00,,---,0.00,VWS V13.01,2013-04-20 15:40:00,
2013-04-20 11:45:00,41.7,-1.2,17.72,WSW,250,6.3,7.6,16,0.00,,---,0.00,VWS V13.01,2013-04-20 15:45:00,
2013-04-20 11:50:00,42.4,-0.6,17.72,NNE,14,0.0,2.7,16,0.00,,---,0.00,VWS V13.01,2013-04-20 15:50:00,
2013-04-20 11:55:00,43.3,-1.2,17.72,WNW,284,5.4,9.6,15,0.00,,---,0.00,VWS V13.01,2013-04-20 15:55:00,
2013-04-20 12:00:00,43.0,-1.5,17.72,ENE,61,5.8,5.8,15,0.00,,---,0.00,VWS V13.01,2013-04-20 16:00:00,
2013-04-20 12:05:00,42.6,-0.4,17.72,NNW,346,3.6,4.0,16,0.00,,---,0.00,VWS V13.01,2013-04-20 16:05:00,
2013-04-20 12:10:00,42.3,-0.7,17.72,West,261,8.1,8.1,16,0.00,,---,0.00,VWS V13.01,2013-04-20 16:10:00,
2013-04-20 12:15:00,41.7,-1.2,17.72,SE,141,5.4,5.4,16,0.00,,---,0.00,VWS V13.01,2013-04-20 16:15:00,
2013-04-20 12:20:00,42.4,-0.6,17.72,NNE,27,3.6,13.2,16,0.00,,---,0.00,VWS V13.01,2013-04-20 16:20:00,
2013-04-20 12:25:00,43.0,-1.5,17.72,NW,315,3.6,5.8,15,0.00,,---,0.00,VWS V13.01,2013-04-20 16:25:00,
2013-04-20 12:30:00,42.4,-0.6,17.72,East,79,3.6,3.6,16,0.00,,---,0.00,VWS V13.01,2013-04-20 16:30:00,
2013-04-20 12:35:00,41.9,-1.0,17.72,NE,38,5.4,5.8,16,0.00,,---,0.00,VWS V13.01,2013-04-20 16:35:00,
2013-04-20 12:40:00,41.7,-1.2,17.72,NNE,31,4.9,8.7,16,0.00,,---,0.00,VWS V13.01,2013-04-20 16:40:00,
2013-04-20 12:45:00,41.2,-1.6,17.72,West,259,4.0,5.4,16,0.00,,---,0.00,VWS V13.01,2013-04-20 16:45:00,
2013-04-20 12:50:00,41.0,-1.7,17.72,ENE,73,8.3,8.3,16,0.00,,---,0.00,VWS V13.01,2013-04-20 16:50:00,
2013-04-20 12:55:00,40.5,-2.2,17.72,WNW,288,4.0,4.0,16,0.00,,---,0.00,VWS V13.01,2013-04-20 16:55:00,
2013-04-20 13:00:00,40.3,-2.3,17.72,WNW,302,3.6,3.6,16,0.00,,---,0.00,VWS V13.01,2013-04-20 17:00:00,
2013-04-20 13:05:00,40.5,-2.2,17.72,SSW,196,2.7,4.0,16,0.00,,---,0.00,VWS V13.01,2013-04-20 17:05:00,
2013-04-20 13:10:00,41.0,-1.7,17.72,West,263,7.6,7.6,16,0.00,,---,0.00,VWS V13.01,2013-04-20 17:10:00,
2013-04-20 13:15:00,41.5,-1.3,17.72,East,96,7.2,10.5,16,0.00,,---,0.00,VWS V13.01,2013-04-20 17:15:00,
2013-04-20 13:20:00,41.0,-1.7,17.72,East,81,3.6,4.0,16,0.00,,---,0.00,VWS V13.01,2013-04-20 17:20:00,
2013-04-20 13:25:00,40.8,-1.9,17.72,WSW,254,3.1,4.9,16,0.00,,---,0.00,VWS V13.01,2013-04-20 17:25:00,
2013-04-20 13:30:00,41.0,-1.7,17.72,West,272,3.1,4.9,16,0.00,,---,0.00,VWS V13.01,2013-04-20 17:30:00,
2013-04-20 13:35:00,41.0,-1.7,17.72,NW,310,3.6,3.6,16,0.00,,---,0.00,VWS V13.01,2013-04-20 17:35:00,
2013-04-20 13:40:00,41.0,-1.7,17.72,North,3,3.1,5.8,16,0.00,,---,0.00,VWS V13.01,2013-04-20 17:40:00,
2013-04-20 13:45:00,40.8,-1.9,17.72,NNE,28,3.1,4.0,16,0.00,,---,0.00,VWS V13.01,2013-04-20 17:45:00,
2013-04-20 13:50:00,41.0,-1.7,17.72,North,353,3.1,6.3,16,0.00,,---,0.00,VWS V13.01,2013-04-20 17:50:00,
2013-04-20 13:55:00,41.0,-1.7,17.72,NNE,29,5.8,5.8,16,0.00,,---,0.00,VWS V13.01,2013-04-20 17:55:00,
2013-04-20 14:00:00,41.0,-1.7,17.72,West,262,4.0,5.4,16,0.00,,---,0.00,VWS V13.01,2013-04-20 18:00:00,
2013-04-20 14:05:00,40.8,-1.9,17.72,NNE,23,3.1,3.1,16,0.00,,---,0.00,VWS V13.01,2013-04-20 18:05:00,
2013-04-20 14:10:00,41.0,-1.7,17.72,ENE,75,5.4,8.3,16,0.00,,---,0.00,VWS V13.01,2013-04-20 18:10:00,
2013-04-20 14:15:00,41.0,-1.7,17.72,NW,314,5.4,8.1,16,0.00,,---,0.00,VWS V13.01,2013-04-20 18:15:00,
2013-04-20 14:20:00,40.8,-1.9,17.72,NNW,348,2.7,5.8,16,0.00,,---,0.00,VWS V13.01,2013-04-20 18:20:00,
2013-04-20 14:25:00,40.6,-2.0,17.72,SW,236,8.1,8.1,16,0.00,,---,0.00,VWS V13.01,2013-04-20 18:25:00,
2013-04-20 14:30:00,40.5,-2.2,17.72,North,3,2.7,4.0,16,0.00,,---,0.00,VWS V13.01,2013-04-20 18:30:00,
2013-04-20 14:35:00,40.8,-1.9,17.72,NNE,33,4.9,4.9,16,0.00,,---,0.00,VWS V13.01,2013-04-20 18:35:00,
2013-04-20 14:40:00,40.6,-2.0,17.72,West,271,7.2,7.2,16,0.00,,---,0.00,VWS V13.01,2013-04-20 18:40:00,
2013-04-20 14:45:00,40.8,-1.9,17.72,WNW,285,3.1,5.8,16,0.00,,---,0.00,VWS V13.01,2013-04-20 18:45:00,
2013-04-20 14:50:00,41.0,-1.7,17.72,North,357,4.0,10.5,16,0.00,,---,0.00,VWS V13.01,2013-04-20 18:50:00,
2013-04-20 14:55:00,41.2,-1.6,17.72,NE,48,3.1,4.9,16,0.00,,---,0.00,VWS V13.01,2013-04-20 18:55:00,
2013-04-20 15:00:00,40.6,-2.0,17.72,NW,313,5.8,7.2,16,0.00,,---,0.00,VWS V13.01,2013-04-20 19:00:00,
2013-04-20 15:05:00,40.3,-2.3,17.72,WSW,250,6.3,9.2,16,0.00,,---,0.00,VWS V13.01,2013-04-20 19:05:00,
2013-04-20 15:10:00,39.9,-2.6,17.72,NNE,13,6.3,8.1,16,0.00,,---,0.00,VWS V13.01,2013-04-20 19:10:00,
2013-04-20 15:15:00,40.3,-2.3,17.72,NW,306,8.7,9.6,16,0.00,,---,0.00,VWS V13.01,2013-04-20 19:15:00,
2013-04-20 15:20:00,40.1,-2.5,17.72,WNW,303,5.8,5.8,16,0.00,,---,0.00,VWS V13.01,2013-04-20 19:20:00,
2013-04-20 15:25:00,39.9,-2.6,17.72,WNW,292,3.1,4.9,16,0.00,,---,0.00,VWS V13.01,2013-04-20 19:25:00,
2013-04-20 15:30:00,40.1,-2.5,17.72,NE,46,6.3,6.3,16,0.00,,---,0.00,VWS V13.01,2013-04-20 19:30:00,
2013-04-20 15:35:00,39.7,-2.8,17.72,West,278,4.9,4.9,16,0.00,,---,0.00,VWS V13.01,2013-04-20 19:35:00,
2013-04-20 15:40:00,39.6,-2.9,17.72,WNW,291,5.4,5.8,16,0.00,,---,0.00,VWS V13.01,2013-04-20 19:40:00,
2013-04-20 15:45:00,39.9,-2.6,17.72,WSW,250,2.7,5.4,16,0.00,,---,0.00,VWS V13.01,2013-04-20 19:45:00,
2013-04-20 15:50:00,39.7,-2.8,17.72,WNW,298,2.7,8.1,16,0.00,,---,0.00,VWS V13.01,2013-04-20 19:50:00,
2013-04-20 15:55:00,39.7,-2.8,17.72,WSW,241,5.4,5.8,16,0.00,,---,0.00,VWS V13.01,2013-04-20 19:55:00,
2013-04-20 16:00:00,39.7,-2.8,17.72,NNW,330,3.1,5.8,16,0.00,,---,0.00,VWS V13.01,2013-04-20 20:00:00,
2013-04-20 16:05:00,39.6,-2.9,17.72,NNE,22,4.0,4.0,16,0.00,,---,0.00,VWS V13.01,2013-04-20 20:05:00,
2013-04-20 16:10:00,39.4,-3.1,17.72,West,263,4.0,4.9,16,0.00,,---,0.00,VWS V13.01,2013-04-20 20:10:00,
2013-04-20 16:15:00,39.4,-3.1,17.72,NW,321,5.8,5.8,16,0.00,,---,0.00,VWS V13.01,2013-04-20 20:15:00,
2013-04-20 16:20:00,39.0,-3.4,17.72,North,353,4.0,6.3,16,0.00,,---,0.00,VWS V13.01,2013-04-20 20:20:00,
2013-04-20 16:25:00,39.2,-3.2,17.72,West,259,3.6,3.6,16,0.00,,---,0.00,VWS V13.01,2013-04-20 20:25:00,
2013-04-20 16:30:00,40.3,-2.3,17.72,WNW,292,0.0,3.1,16,0.00,,---,0.00,VWS V13.01,2013-04-20 20:30:00,
2013-04-20 16:35:00,40.3,-2.3,17.72,NNW,332,4.0,4.0,16,0.00,,---,0.00,VWS V13.01,2013-04-20 20:35:00,
2013-04-20 16:40:00,39.4,-3.1,17.72,South,184,3.1,9.2,16,0.00,,---,0.00,VWS V13.01,2013-04-20 20:40:00,
2013-04-20 16:45:00,39.2,-3.2,17.72,WNW,290,6.7,6.7,16,0.00,,---,0.00,VWS V13.01,2013-04-20 20:45:00,
2013-04-20 16:50:00,38.8,-3.5,17.72,North,353,4.0,10.1,16,0.00,,---,0.00,VWS V13.01,2013-04-20 20:50:00,
2013-04-20 16:55:00,38.7,-3.7,17.72,North,1,6.3,6.3,16,0.00,,---,0.00,VWS V13.01,2013-04-20 20:55:00,
2013-04-20 17:00:00,38.5,-3.8,17.72,WNW,293,6.3,8.3,16,0.00,,---,0.00,VWS V13.01,2013-04-20 21:00:00,
2013-04-20 17:05:00,38.5,-3.8,17.72,NNW,332,3.6,4.0,16,0.00,,---,0.00,VWS V13.01,2013-04-20 21:05:00,
2013-04-20 17:10:00,38.5,-3.8,17.72,North,357,8.1,8.1,16,0.00,,---,0.00,VWS V13.01,2013-04-20 21:10:00,
2013-04-20 17:15:00,38.5,-3.8,17.72,West,270,4.0,4.0,16,0.00,,---,0.00,VWS V13.01,2013-04-20 21:15:00,
2013-04-20 17:20:00,38.5,-3.8,17.72,SSW,212,5.4,5.8,16,0.00,,---,0.00,VWS V13.01,2013-04-20 21:20:00,
2013-04-20 17:25:00,38.5,-3.8,17.72,SW,225,2.7,3.6,16,0.00,,---,0.00,VWS V13.01,2013-04-20 21:25:00,
2013-04-20 17:30:00,38.3,-4.0,17.72,SW,217,2.7,4.0,16,0.00,,---,0.00,VWS V13.01,2013-04-20 21:30:00,
2013-04-20 17:35:00,38.3,-4.0,17.72,West,271,3.1,4.0,16,0.00,,---,0.00,VWS V13.01,2013-04-20 21:35:00,
2013-04-20 17:40:00,38.5,-3.8,17.72,WSW,255,4.9,4.9,16,0.00,,---,0.00,VWS V13.01,2013-04-20 21:40:00,
2013-04-20 17:45:00,38.5,-3.8,17.72,WNW,295,3.6,3.6,16,0.00,,---,0.00,VWS V13.01,2013-04-20 21:45:00,
2013-04-20 17:50:00,38.5,-3.8,17.72,WSW,244,0.0,3.1,16,0.00,,---,0.00,VWS V13.01,2013-04-20 21:50:00,
2013-04-20 17:55:00,38.5,-3.8,17.72,NE,46,5.8,5.8,16,0.00,,---,0.00,VWS V13.01,2013-04-20 21:55:00,
2013-04-20 18:00:00,38.1,-4.1,17.72,NE,37,4.0,4.0,16,0.00,,---,0.00,VWS V13.01,2013-04-20 22:00:00,
2013-04-20 18:05:00,38.1,-4.1,17.72,WNW,291,6.3,6.3,16,0.00,,---,0.00,VWS V13.01,2013-04-20 22:05:00,
2013-04-20 18:10:00,37.9,-4.2,17.72,WSW,243,3.6,3.6,16,0.00,,---,0.00,VWS V13.01,2013-04-20 22:10:00,
2013-04-20 18:15:00,37.9,-4.2,17.72,SW,222,6.3,6.3,16,0.00,,---,0.00,VWS V13.01,2013-04-20 22:15:00,
2013-04-20 18:20:00,37.8,-4.4,17.72,WNW,293,4.0,4.0,16,0.00,,---,0.00,VWS V13.01,2013-04-20 22:20:00,
2013-04-20 18:25:00,37.8,-4.4,17.72,North,1,2.2,3.6,16,0.00,,---,0.00,VWS V13.01,2013-04-20 22:25:00,
2013-04-20 18:30:00,37.8,-4.4,17.72,South,174,0.0,3.1,16,0.00,,---,0.00,VWS V13.01,2013-04-20 22:30:00,
2013-04-20 18:35:00,37.8,-4.4,17.72,SW,227,2.7,5.4,16,0.00,,---,0.00,VWS V13.01,2013-04-20 22:35:00,
2013-04-20 18:40:00,37.8,-4.4,17.72,North,4,0.0,2.7,16,0.00,,---,0.00,VWS V13.01,2013-04-20 22:40:00,
2013-04-20 18:45:00,37.8,-4.4,17.72,North,9,6.3,8.1,16,0.00,,---,0.00,VWS V13.01,2013-04-20 22:45:00,
2013-04-20 18:50:00,37.6,-4.5,17.72,WNW,301,3.6,5.4,16,0.00,,---,0.00,VWS V13.01,2013-04-20 22:50:00,
2013-04-20 18:55:00,37.6,-4.5,17.72,North,2,3.6,3.6,16,0.00,,---,0.00,VWS V13.01,2013-04-20 22:55:00,
2013-04-20 19:00:00,37.6,-4.5,17.72,NE,36,4.0,4.0,16,0.00,,---,0.00,VWS V13.01,2013-04-20 23:00:00,
2013-04-20 19:05:00,37.4,-4.7,17.72,West,267,2.7,5.8,16,0.00,,---,0.00,VWS V13.01,2013-04-20 23:05:00,
2013-04-20 19:10:00,37.4,-4.7,17.72,WNW,294,2.7,3.6,16,0.00,,---,0.00,VWS V13.01,2013-04-20 23:10:00,
2013-04-20 19:15:00,37.2,-3.6,17.72,West,268,5.4,5.4,17,0.00,,---,0.00,VWS V13.01,2013-04-20 23:15:00,
2013-04-20 19:20:00,37.0,-3.7,17.72,South,176,2.7,5.4,17,0.00,,---,0.00,VWS V13.01,2013-04-20 23:20:00,
2013-04-20 19:25:00,36.9,-3.9,17.72,WNW,297,5.4,5.4,17,0.00,,---,0.00,VWS V13.01,2013-04-20 23:25:00,
2013-04-20 19:30:00,36.7,-4.0,17.72,East,87,5.8,5.8,17,0.00,,---,0.00,VWS V13.01,2013-04-20 23:30:00,
2013-04-20 19:35:00,36.5,-4.2,17.72,North,11,5.8,8.7,17,0.00,,---,0.00,VWS V13.01,2013-04-20 23:35:00,
2013-04-20 19:40:00,36.3,-4.3,17.72,North,0,4.9,4.9,17,0.00,,---,0.00,VWS V13.01,2013-04-20 23:40:00,
2013-04-20 19:45:00,36.1,-4.5,17.72,ENE,78,2.2,2.2,17,0.00,,---,0.00,VWS V13.01,2013-04-20 23:45:00,
2013-04-20 19:50:00,36.1,-4.5,17.72,ENE,58,3.1,3.1,17,0.00,,---,0.00,VWS V13.01,2013-04-20 23:50:00,
2013-04-20 19:55:00,36.0,-4.6,17.72,NNE,25,0.0,0.0,17,0.00,,---,0.00,VWS V13.01,2013-04-20 23:55:00,
2013-04-20 20:00:00,35.8,-4.8,17.72,NW,308,2.7,2.7,17,0.00,,---,0.00,VWS V13.01,2013-04-21 00:00:00,
2013-04-20 20:05:00,35.8,-4.8,17.72,WSW,258,0.0,0.0,17,0.00,,---,0.00,VWS V13.01,2013-04-21 00:05:00,
2013-04-20 20:10:00,35.8,-4.8,17.72,WNW,288,3.1,3.1,17,0.00,,---,0.00,VWS V13.01,2013-04-21 00:10:00,
2013-04-20 20:15:00,35.6,-4.9,17.72,West,276,0.0,3.1,17,0.00,,---,0.00,VWS V13.01,2013-04-21 00:15:00,
2013-04-20 20:20:00,35.6,-4.9,17.72,WNW,290,0.0,0.0,17,0.00,,---,0.00,VWS V13.01,2013-04-21 00:20:00,
2013-04-20 20:25:00,35.4,-5.1,17.72,WNW,294,0.0,0.0,17,0.00,,---,0.00,VWS V13.01,2013-04-21 00:25:00,
2013-04-20 20:30:00,35.4,-5.1,17.72,WNW,289,2.2,2.7,17,0.00,,---,0.00,VWS V13.01,2013-04-21 00:30:00,
2013-04-20 20:35:00,35.2,-5.2,17.72,SW,233,0.0,0.0,17,0.00,,---,0.00,VWS V13.01,2013-04-21 00:35:00,
2013-04-20 20:40:00,35.1,-5.3,17.72,North,2,3.1,3.1,17,0.00,,---,0.00,VWS V13.01,2013-04-21 00:40:00,
2013-04-20 20:45:00,35.1,-5.3,17.72,NW,306,0.0,2.2,17,0.00,,---,0.00,VWS V13.01,2013-04-21 00:45:00,
2013-04-20 20:50:00,34.9,-5.5,17.72,NE,36,0.0,0.0,17,0.00,,---,0.00,VWS V13.01,2013-04-21 00:50:00,
2013-04-20 20:55:00,34.9,-5.5,17.72,NNW,342,2.2,2.7,17,0.00,,---,0.00,VWS V13.01,2013-04-21 00:55:00,
2013-04-20 21:00:00,34.9,-5.5,17.72,West,272,2.7,3.1,17,0.00,,---,0.00,VWS V13.01,2013-04-21 01:00:00,
2013-04-20 21:05:00,34.9,-5.5,17.72,North,1,2.2,2.2,17,0.00,,---,0.00,VWS V13.01,2013-04-21 01:05:00,
2013-04-20 21:10:00,34.9,-5.5,17.72,NNE,25,3.1,3.6,17,0.00,,---,0.00,VWS V13.01,2013-04-21 01:10:00,
2013-04-20 21:15:00,34.9,-5.5,17.72,NE,53,0.0,0.0,17,0.00,,---,0.00,VWS V13.01,2013-04-21 01:15:00,
2013-04-20 21:20:00,34.9,-5.5,17.72,WSW,245,0.0,0.0,17,0.00,,---,0.00,VWS V13.01,2013-04-21 01:20:00,
2013-04-20 21:25:00,34.9,-5.5,17.72,West,275,0.0,0.0,17,0.00,,---,0.00,VWS V13.01,2013-04-21 01:25:00,
2013-04-20 21:30:00,34.9,-5.5,17.72,WSW,244,0.0,2.7,17,0.00,,---,0.00,VWS V13.01,2013-04-21 01:30:00,
2013-04-20 21:35:00,34.7,-5.6,17.72,NE,41,0.0,0.0,17,0.00,,---,0.00,VWS V13.01,2013-04-21 01:35:00,
2013-04-20 21:40:00,34.7,-5.6,17.72,NNE,14,0.0,0.0,17,0.00,,---,0.00,VWS V13.01,2013-04-21 01:40:00,
2013-04-20 21:45:00,34.5,-5.8,17.72,WNW,293,2.7,2.7,17,0.00,,---,0.00,VWS V13.01,2013-04-21 01:45:00,
2013-04-20 21:50:00,34.5,-5.8,17.72,WSW,249,0.0,0.0,17,0.00,,---,0.00,VWS V13.01,2013-04-21 01:50:00,
2013-04-20 21:55:00,34.5,-5.8,17.72,WNW,282,0.0,0.0,17,0.00,,---,0.00,VWS V13.01,2013-04-21 01:55:00,
2013-04-20 22:00:00,34.3,-5.9,17.72,WNW,303,0.0,0.0,17,0.00,,---,0.00,VWS V13.01,2013-04-21 02:00:00,
2013-04-20 22:05:00,34.3,-5.9,17.72,NNW,344,0.0,0.0,17,0.00,,---,0.00,VWS V13.01,2013-04-21 02:05:00,
2013-04-20 22:10:00,34.3,-5.9,17.72,NW,304,3.6,3.6,17,0.00,,---,0.00,VWS V13.01,2013-04-21 02:10:00,
2013-04-20 22:15:00,34.3,-5.9,17.72,NNW,328,2.2,2.7,17,0.00,,---,0.00,VWS V13.01,2013-04-21 02:15:00,
2013-04-20 22:20:00,34.3,-5.9,17.72,SSW,208,0.0,0.0,17,0.00,,---,0.00,VWS V13.01,2013-04-21 02:20:00,
2013-04-20 22:25:00,34.3,-5.9,17.72,West,271,0.0,0.0,17,0.00,,---,0.00,VWS V13.01,2013-04-21 02:25:00,
2013-04-20 22:30:00,34.3,-5.9,17.72,West,260,0.0,0.0,17,0.00,,---,0.00,VWS V13.01,2013-04-21 02:30:00,
2013-04-20 22:35:00,34.3,-5.9,17.72,NNE,32,0.0,0.0,17,0.00,,---,0.00,VWS V13.01,2013-04-21 02:35:00,
2013-04-20 22:40:00,34.3,-5.9,17.72,West,268,2.7,2.7,17,0.00,,---,0.00,VWS V13.01,2013-04-21 02:40:00,
2013-04-20 22:45:00,34.2,-6.1,17.72,NNW,344,0.0,0.0,17,0.00,,---,0.00,VWS V13.01,2013-04-21 02:45:00,
2013-04-20 22:50:00,34.0,-6.2,17.72,NW,325,2.2,2.2,17,0.00,,---,0.00,VWS V13.01,2013-04-21 02:50:00,
2013-04-20 22:55:00,34.0,-6.2,17.72,NW,326,0.0,0.0,17,0.00,,---,0.00,VWS V13.01,2013-04-21 02:55:00,
2013-04-20 23:00:00,33.8,-6.4,17.72,NNE,29,2.2,4.9,17,0.00,,---,0.00,VWS V13.01,2013-04-21 03:00:00,
2013-04-20 23:05:00,33.8,-6.4,17.72,North,353,0.0,0.0,17,0.00,,---,0.00,VWS V13.01,2013-04-21 03:05:00,
2013-04-20 23:10:00,33.8,-6.4,17.72,SSW,207,0.0,0.0,17,0.00,,---,0.00,VWS V13.01,2013-04-21 03:10:00,
2013-04-20 23:15:00,33.6,-5.3,17.72,West,275,0.0,0.0,18,0.00,,---,0.00,VWS V13.01,2013-04-21 03:15:00,
2013-04-20 23:20:00,33.6,-5.3,17.72,West,275,0.0,0.0,18,0.00,,---,0.00,VWS V13.01,2013-04-21 03:20:00,
2013-04-20 23:25:00,33.6,-5.3,17.72,West,275,0.0,0.0,18,0.00,,---,0.00,VWS V13.01,2013-04-21 03:25:00,
2013-04-20 23:30:00,33.4,-5.5,17.72,West,275,0.0,0.0,18,0.00,,---,0.00,VWS V13.01,2013-04-21 03:30:00,
2013-04-20 23:35:00,33.4,-5.5,17.72,North,357,0.0,0.0,18,0.00,,---,0.00,VWS V13.01,2013-04-21 03:35:00,
2013-04-20 23:40:00,33.3,-5.7,17.72,NNE,13,4.0,4.0,18,0.00,,---,0.00,VWS V13.01,2013-04-21 03:40:00,
2013-04-20 23:45:00,33.3,-5.7,17.72,North,8,2.7,5.4,18,0.00,,---,0.00,VWS V13.01,2013-04-21 03:45:00,
2013-04-20 23:50:00,33.3,-5.7,17.72,WSW,256,0.0,0.0,18,0.00,,---,0.00,VWS V13.01,2013-04-21 03:50:00,
2013-04-20 23:55:00,33.1,-5.8,17.72,WSW,252,0.0,0.0,18,0.00,,---,0.00,VWS V13.01,2013-04-21 03:55:00,